createdAt,value
2019-01-24T00:00:42.992Z,97651.84
2019-01-24T00:03:12.088Z,97648.53
2019-01-24T00:05:40.979Z,97633.65
2019-01-24T00:08:09.866Z,97635.29
2019-01-24T00:10:38.652Z,97633.13
2019-01-24T00:13:07.458Z,97625.05
2019-01-24T00:15:36.332Z,97629.99
2019-01-24T00:18:05.163Z,97627.83
2019-01-24T00:20:34.010Z,97625.34
2019-01-24T00:23:02.901Z,97627.96
2019-01-24T00:25:31.629Z,97632.60
2019-01-24T00:28:00.501Z,97627.30
2019-01-24T00:30:29.474Z,97624.65
2019-01-24T00:32:58.208Z,97613.88
2019-01-24T00:35:27.047Z,97614.40
2019-01-24T00:37:55.817Z,97602.31
2019-01-24T00:40:24.543Z,97594.93
2019-01-24T00:42:53.304Z,97594.63
2019-01-24T00:45:22.401Z,97605.04
2019-01-24T00:47:51.193Z,97603.19
2019-01-24T00:50:19.918Z,97600.54
2019-01-24T00:52:48.704Z,97591.76
2019-01-24T00:55:17.451Z,97586.81
2019-01-24T00:57:46.240Z,97584.34
2019-01-24T01:00:20.432Z,97590.34
2019-01-24T01:02:49.760Z,97595.59
2019-01-24T01:05:18.747Z,97589.84
2019-01-24T01:07:48.141Z,97596.53
2019-01-24T01:10:17.365Z,97606.31
2019-01-24T01:12:46.749Z,97608.45
2019-01-24T01:15:18.506Z,97611.42
2019-01-24T01:17:47.733Z,97610.59
2019-01-24T01:20:21.921Z,97607.80
2019-01-24T01:22:51.117Z,97609.29
2019-01-24T01:25:20.007Z,97603.01
2019-01-24T01:27:49.003Z,97597.72
2019-01-24T01:30:20.393Z,97596.55
2019-01-24T01:32:49.544Z,97604.31
2019-01-24T01:35:18.776Z,97596.89
2019-01-24T01:37:48.146Z,97595.06
2019-01-24T01:40:20.620Z,97588.97
2019-01-24T01:42:49.410Z,97584.84
2019-01-24T01:45:20.449Z,97588.15
2019-01-24T01:47:49.481Z,97583.17
2019-01-24T01:50:20.519Z,97583.52
2019-01-24T01:52:49.784Z,97577.56
2019-01-24T01:55:18.513Z,97573.93
2019-01-24T01:57:47.358Z,97568.30
2019-01-24T02:00:18.715Z,97568.64
2019-01-24T02:02:47.531Z,97568.81
2019-01-24T02:05:16.532Z,97564.33
2019-01-24T02:07:45.305Z,97559.88
2019-01-24T02:10:22.049Z,97564.02
2019-01-24T02:12:51.211Z,97556.40
2019-01-24T02:15:20.343Z,97545.66
2019-01-24T02:17:49.649Z,97537.39
2019-01-24T02:20:20.510Z,97538.36
2019-01-24T02:22:49.237Z,97535.22
2019-01-24T02:25:18.259Z,97539.03
2019-01-24T02:27:47.356Z,97534.88
2019-01-24T02:30:24.642Z,97535.72
2019-01-24T02:32:53.974Z,97522.34
2019-01-24T02:35:22.834Z,97528.61
2019-01-24T02:37:51.562Z,97528.91
2019-01-24T02:40:20.921Z,97529.75
2019-01-24T02:42:49.712Z,97526.45
2019-01-24T02:45:23.924Z,97537.16
2019-01-24T02:47:54.017Z,97538.66
2019-01-24T02:50:23.960Z,97538.32
2019-01-24T02:52:52.799Z,97530.08
2019-01-24T02:55:21.637Z,97527.44
2019-01-24T02:57:50.421Z,97535.34
2019-01-24T03:00:21.354Z,97526.28
2019-01-24T03:02:50.254Z,97526.95
2019-01-24T03:05:21.294Z,97521.33
2019-01-24T03:07:50.427Z,97520.68
2019-01-24T03:10:19.379Z,97514.09
2019-01-24T03:12:48.574Z,97499.20
2019-01-24T03:15:21.871Z,97498.03
2019-01-24T03:17:51.303Z,97489.27
2019-01-24T03:20:20.171Z,97498.48
2019-01-24T03:22:49.352Z,97508.53
2019-01-24T03:25:19.381Z,97511.33
2019-01-24T03:27:48.577Z,97504.89
2019-01-24T03:30:20.341Z,97500.11
2019-01-24T03:32:49.433Z,97506.88
2019-01-24T03:35:21.085Z,97492.20
2019-01-24T03:37:49.878Z,97485.22
2019-01-24T03:40:18.763Z,97500.55
2019-01-24T03:42:47.551Z,97499.53
2019-01-24T03:45:18.459Z,97494.44
2019-01-24T03:47:47.382Z,97495.59
2019-01-24T03:50:18.012Z,97493.13
2019-01-24T03:52:46.799Z,97493.63
2019-01-24T03:55:17.737Z,97496.13
2019-01-24T03:57:46.655Z,97491.33
2019-01-24T04:00:26.073Z,97487.05
2019-01-24T04:02:54.794Z,97486.08
2019-01-24T04:05:24.116Z,97489.39
2019-01-24T04:07:52.955Z,97487.94
2019-01-24T04:10:22.672Z,97495.70
2019-01-24T04:12:51.437Z,97492.22
2019-01-24T04:15:23.009Z,97493.22
2019-01-24T04:17:52.296Z,97501.61
2019-01-24T04:20:21.119Z,97497.01
2019-01-24T04:22:49.969Z,97496.83
2019-01-24T04:25:18.720Z,97497.83
2019-01-24T04:27:47.435Z,97490.08
2019-01-24T04:30:18.783Z,97497.98
2019-01-24T04:32:47.584Z,97491.56
2019-01-24T04:35:20.091Z,97493.37
2019-01-24T04:37:47.511Z,97502.11
2019-01-24T04:40:18.139Z,97500.49
2019-01-24T04:42:46.929Z,97502.11
2019-01-24T04:45:17.114Z,97501.47
2019-01-24T04:47:45.938Z,97506.42
2019-01-24T04:50:16.471Z,97513.85
2019-01-24T04:52:45.253Z,97514.02
2019-01-24T04:55:16.208Z,97514.55
2019-01-24T04:57:45.055Z,97521.82
2019-01-24T05:00:22.693Z,97518.84
2019-01-24T05:02:51.467Z,97534.05
2019-01-24T05:05:27.172Z,97535.85
2019-01-24T05:07:50.992Z,97541.16
2019-01-24T05:10:19.779Z,97536.52
2019-01-24T05:12:48.668Z,97536.89
2019-01-24T05:15:18.683Z,97545.95
2019-01-24T05:17:47.470Z,97545.66
2019-01-24T05:20:16.263Z,97546.31
2019-01-24T05:22:45.148Z,97545.19
2019-01-24T05:25:16.102Z,97547.00
2019-01-24T05:27:44.812Z,97543.19
2019-01-24T05:30:17.350Z,97531.13
2019-01-24T05:32:46.077Z,97534.92
2019-01-24T05:35:14.926Z,97544.52
2019-01-24T05:37:43.816Z,97541.55
2019-01-24T05:40:12.940Z,97537.74
2019-01-24T05:42:41.718Z,97538.23
2019-01-24T05:45:13.075Z,97536.93
2019-01-24T05:47:41.833Z,97524.20
2019-01-24T05:50:12.980Z,97520.22
2019-01-24T05:52:42.299Z,97528.16
2019-01-24T05:55:12.530Z,97534.11
2019-01-24T05:57:41.493Z,97532.77
2019-01-24T06:00:17.651Z,97536.42
2019-01-24T06:02:46.442Z,97537.09
2019-01-24T06:05:15.970Z,97546.19
2019-01-24T06:07:44.858Z,97543.53
2019-01-24T06:10:15.780Z,97543.84
2019-01-24T06:12:44.667Z,97536.27
2019-01-24T06:15:16.128Z,97532.44
2019-01-24T06:17:45.211Z,97528.15
2019-01-24T06:20:14.343Z,97528.50
2019-01-24T06:22:43.199Z,97528.31
2019-01-24T06:25:13.865Z,97516.41
2019-01-24T06:27:43.135Z,97527.33
2019-01-24T06:30:20.321Z,97519.89
2019-01-24T06:32:49.207Z,97520.88
2019-01-24T06:35:17.939Z,97521.20
2019-01-24T06:37:46.929Z,97521.38
2019-01-24T06:40:16.695Z,97527.48
2019-01-24T06:42:45.590Z,97537.55
2019-01-24T06:45:17.246Z,97527.31
2019-01-24T06:47:46.231Z,97531.28
2019-01-24T06:50:16.562Z,97528.97
2019-01-24T06:52:45.553Z,97522.69
2019-01-24T06:55:17.310Z,97526.31
2019-01-24T06:57:46.094Z,97519.36
2019-01-24T07:00:17.262Z,97520.37
2019-01-24T07:02:46.027Z,97520.86
2019-01-24T07:05:15.123Z,97520.34
2019-01-24T07:07:44.338Z,97524.28
2019-01-24T07:10:15.669Z,97518.47
2019-01-24T07:12:44.461Z,97524.57
2019-01-24T07:15:16.520Z,97532.83
2019-01-24T07:17:45.410Z,97533.48
2019-01-24T07:20:16.760Z,97540.59
2019-01-24T07:22:45.755Z,97546.51
2019-01-24T07:25:20.124Z,97542.85
2019-01-24T07:27:48.958Z,97539.19
2019-01-24T07:30:19.633Z,97537.69
2019-01-24T07:32:48.789Z,97539.67
2019-01-24T07:35:18.926Z,97537.72
2019-01-24T07:37:48.106Z,97540.02
2019-01-24T07:40:20.628Z,97548.14
2019-01-24T07:42:50.905Z,97547.30
2019-01-24T07:45:25.529Z,97539.84
2019-01-24T07:47:54.263Z,97545.80
2019-01-24T07:50:23.102Z,97538.25
2019-01-24T07:52:51.890Z,97536.54
2019-01-24T07:55:20.626Z,97528.77
2019-01-24T07:57:49.365Z,97525.80
2019-01-24T08:00:26.762Z,97518.34
2019-01-24T08:02:55.797Z,97522.68
2019-01-24T08:05:26.031Z,97517.88
2019-01-24T08:07:54.860Z,97532.30
2019-01-24T08:10:24.470Z,97530.97
2019-01-24T08:12:53.218Z,97523.48
2019-01-24T08:15:23.455Z,97517.20
2019-01-24T08:17:52.574Z,97522.33
2019-01-24T08:20:26.292Z,97536.84
2019-01-24T08:22:55.178Z,97530.71
2019-01-24T08:25:24.259Z,97532.73
2019-01-24T08:27:53.296Z,97550.16
2019-01-24T08:30:27.366Z,97541.22
2019-01-24T08:32:56.254Z,97549.34
2019-01-24T08:35:25.149Z,97547.03
2019-01-24T08:37:54.140Z,97538.25
2019-01-24T08:40:24.077Z,97543.41
2019-01-24T08:42:53.293Z,97533.45
2019-01-24T08:45:22.141Z,97531.64
2019-01-24T08:47:51.158Z,97535.92
2019-01-24T08:50:27.192Z,97526.48
2019-01-24T08:52:56.287Z,97528.32
2019-01-24T08:55:36.241Z,97521.88
2019-01-24T08:58:05.855Z,97519.72
2019-01-24T09:00:34.633Z,97519.23
2019-01-24T09:03:03.633Z,97521.19
2019-01-24T09:05:32.364Z,97519.06
2019-01-24T09:08:01.406Z,97513.94
2019-01-24T09:10:32.963Z,97499.69
2019-01-24T09:13:02.201Z,97505.95
2019-01-24T09:15:31.251Z,97514.87
2019-01-24T09:18:00.162Z,97510.36
2019-01-24T09:20:29.042Z,97512.48
2019-01-24T09:22:57.781Z,97515.28
2019-01-24T09:25:26.608Z,97503.48
2019-01-24T09:27:55.401Z,97508.80
2019-01-24T09:30:27.156Z,97521.02
2019-01-24T09:32:56.159Z,97505.30
2019-01-24T09:35:25.140Z,97495.86
2019-01-24T09:37:53.928Z,97493.73
2019-01-24T09:40:23.825Z,97478.93
2019-01-24T09:42:52.736Z,97471.33
2019-01-24T09:45:29.033Z,97474.95
2019-01-24T09:47:59.076Z,97475.73
2019-01-24T09:50:28.816Z,97474.88
2019-01-24T09:52:58.127Z,97471.28
2019-01-24T09:55:27.026Z,97489.16
2019-01-24T09:57:55.805Z,97484.32
2019-01-24T10:00:30.192Z,97497.56
2019-01-24T10:02:59.019Z,97509.13
2019-01-24T10:05:27.798Z,97497.49
2019-01-24T10:07:57.098Z,97493.83
2019-01-24T10:10:27.543Z,97489.64
2019-01-24T10:12:57.090Z,97491.94
2019-01-24T10:15:26.128Z,97485.05
2019-01-24T10:17:54.916Z,97486.17
2019-01-24T10:20:25.766Z,97475.70
2019-01-24T10:22:54.653Z,97477.18
2019-01-24T10:25:28.688Z,97478.30
2019-01-24T10:27:57.644Z,97477.94
2019-01-24T10:30:27.337Z,97479.05
2019-01-24T10:32:56.248Z,97471.37
2019-01-24T10:35:24.988Z,97468.34
2019-01-24T10:37:54.149Z,97469.28
2019-01-24T10:40:24.991Z,97468.91
2019-01-24T10:42:53.723Z,97464.90
2019-01-24T10:45:23.175Z,97456.78
2019-01-24T10:47:53.272Z,97451.75
2019-01-24T10:50:26.669Z,97450.30
2019-01-24T10:52:55.665Z,97449.80
2019-01-24T10:55:26.607Z,97445.67
2019-01-24T10:58:01.204Z,97448.02
2019-01-24T11:00:32.690Z,97450.02
2019-01-24T11:03:03.735Z,97443.88
2019-01-24T11:05:32.838Z,97451.16
2019-01-24T11:08:01.602Z,97440.33
2019-01-24T11:10:30.391Z,97376.52
2019-01-24T11:12:59.302Z,97439.39
2019-01-24T11:15:28.376Z,97433.82
2019-01-24T11:17:57.166Z,97434.27
2019-01-24T11:20:26.167Z,97432.27
2019-01-24T11:22:55.151Z,97436.70
2019-01-24T11:25:25.788Z,97429.84
2019-01-24T11:27:54.878Z,97427.25
2019-01-24T11:30:26.122Z,97425.05
2019-01-24T11:32:55.865Z,97417.39
2019-01-24T11:35:27.755Z,97413.31
2019-01-24T11:37:56.901Z,97422.92
2019-01-24T11:40:25.744Z,97413.36
2019-01-24T11:42:54.982Z,97408.54
2019-01-24T11:45:26.737Z,97406.30
2019-01-24T11:47:55.523Z,97412.78
2019-01-24T11:50:24.415Z,97404.33
2019-01-24T11:52:53.209Z,97405.50
2019-01-24T11:55:22.506Z,97402.85
2019-01-24T11:57:51.499Z,97405.10
2019-01-24T12:00:33.312Z,97401.23
2019-01-24T12:03:02.111Z,97396.26
2019-01-24T12:05:31.069Z,97401.91
2019-01-24T12:07:59.861Z,97400.08
2019-01-24T12:10:31.109Z,97403.09
2019-01-24T12:12:59.893Z,97406.28
2019-01-24T12:15:30.150Z,97414.17
2019-01-24T12:17:59.008Z,97422.55
2019-01-24T12:20:28.104Z,97427.26
2019-01-24T12:22:57.404Z,97426.58
2019-01-24T12:25:26.669Z,97437.20
2019-01-24T12:27:55.410Z,97434.92
2019-01-24T12:30:27.144Z,97437.57
2019-01-24T12:32:56.243Z,97437.16
2019-01-24T12:35:24.998Z,97435.76
2019-01-24T12:37:53.818Z,97435.00
2019-01-24T12:40:22.739Z,97435.30
2019-01-24T12:42:52.011Z,97431.35
2019-01-24T12:45:23.152Z,97438.41
2019-01-24T12:47:52.454Z,97436.44
2019-01-24T12:50:21.249Z,97440.61
2019-01-24T12:52:49.976Z,97440.72
2019-01-24T12:55:19.203Z,97446.56
2019-01-24T12:57:48.155Z,97437.07
2019-01-24T13:00:31.696Z,97439.77
2019-01-24T13:03:00.437Z,97435.34
2019-01-24T13:05:30.662Z,97439.01
2019-01-24T13:07:59.447Z,97432.41
2019-01-24T13:10:29.292Z,97429.89
2019-01-24T13:12:58.048Z,97432.22
2019-01-24T13:15:29.240Z,97441.14
2019-01-24T13:17:58.084Z,97437.05
2019-01-24T13:20:26.874Z,97436.64
2019-01-24T13:22:55.864Z,97431.07
2019-01-24T13:25:29.259Z,97443.53
2019-01-24T13:27:58.150Z,97448.09
2019-01-24T13:30:32.164Z,97446.30
2019-01-24T13:33:00.995Z,97446.05
2019-01-24T13:35:29.942Z,97446.59
2019-01-24T13:37:59.784Z,97440.27
2019-01-24T13:40:30.208Z,97447.40
2019-01-24T13:42:59.860Z,97448.24
2019-01-24T13:45:31.560Z,97454.61
2019-01-24T13:48:00.540Z,97461.61
2019-01-24T13:50:29.325Z,97464.24
2019-01-24T13:52:58.219Z,97463.78
2019-01-24T13:55:27.008Z,97460.56
2019-01-24T13:57:55.795Z,97460.08
2019-01-24T14:00:30.158Z,97467.43
2019-01-24T14:03:10.951Z,97476.69
2019-01-24T14:05:39.770Z,97478.24
2019-01-24T14:08:08.559Z,97482.35
2019-01-24T14:10:37.347Z,97484.69
2019-01-24T14:13:06.342Z,97489.00
2019-01-24T14:15:35.078Z,97474.42
2019-01-24T14:18:04.522Z,97479.08
2019-01-24T14:20:33.441Z,97478.44
2019-01-24T14:23:02.415Z,97484.53
2019-01-24T14:25:31.205Z,97486.99
2019-01-24T14:28:00.196Z,97493.09
2019-01-24T14:30:29.532Z,97495.58
2019-01-24T14:32:58.611Z,97497.89
2019-01-24T14:35:27.512Z,97498.84
2019-01-24T14:37:56.390Z,97494.05
2019-01-24T14:40:25.281Z,97485.16
2019-01-24T14:42:54.181Z,97495.23
2019-01-24T14:45:25.520Z,97498.70
2019-01-24T14:47:54.410Z,97509.26
2019-01-24T14:50:28.638Z,97508.54
2019-01-24T14:52:57.649Z,97511.66
2019-01-24T14:55:26.407Z,97515.61
2019-01-24T14:57:55.503Z,97512.10
2019-01-24T15:00:30.026Z,97516.23
2019-01-24T15:02:58.915Z,97518.52
2019-01-24T15:05:28.023Z,97519.83
2019-01-24T15:07:56.788Z,97535.39
2019-01-24T15:13:30.651Z,97543.91
2019-01-24T15:15:59.516Z,97547.30
2019-01-24T15:18:28.405Z,97544.75
2019-01-24T15:20:57.301Z,97545.84
2019-01-24T15:23:26.596Z,97544.84
2019-01-24T15:25:55.590Z,97545.01
2019-01-24T15:28:24.486Z,97548.48
2019-01-24T15:30:53.387Z,97544.44
2019-01-24T15:33:22.263Z,97554.70
2019-01-24T15:35:51.153Z,97557.05
2019-01-24T15:38:20.045Z,97564.93
2019-01-24T15:40:48.941Z,97575.05
2019-01-24T15:43:17.824Z,97581.05
2019-01-24T15:45:46.819Z,97583.84
2019-01-24T15:48:15.707Z,97583.61
2019-01-24T15:50:44.698Z,97580.24
2019-01-24T15:53:13.602Z,97587.36
2019-01-24T15:55:42.485Z,97593.47
2019-01-24T15:58:11.287Z,97588.00
2019-01-24T16:00:40.732Z,97584.46
2019-01-24T16:03:09.564Z,97582.30
2019-01-24T16:05:38.553Z,97595.18
2019-01-24T16:08:07.447Z,97602.39
2019-01-24T16:10:36.338Z,97608.91
2019-01-24T16:13:05.619Z,97598.44
2019-01-24T16:15:36.269Z,97604.03
2019-01-24T16:18:07.258Z,97603.27
2019-01-24T16:20:36.614Z,97606.23
2019-01-24T16:23:05.910Z,97609.45
2019-01-24T16:25:35.537Z,97617.84
2019-01-24T16:28:05.841Z,97615.37
2019-01-24T16:30:36.340Z,97613.73
2019-01-24T16:33:07.621Z,97620.97
2019-01-24T16:35:36.816Z,97617.44
2019-01-24T16:38:09.544Z,97619.98
2019-01-24T16:40:36.542Z,97621.08
2019-01-24T16:43:05.843Z,97619.92
2019-01-24T16:45:34.786Z,97626.46
2019-01-24T16:48:03.623Z,97635.64
2019-01-24T16:50:32.513Z,97640.71
2019-01-24T16:53:01.403Z,97642.76
2019-01-24T16:55:30.295Z,97657.29
2019-01-24T16:57:59.185Z,97663.04
2019-01-24T17:00:31.046Z,97662.20
2019-01-24T17:03:00.043Z,97657.08
2019-01-24T17:05:29.031Z,97658.40
2019-01-24T17:07:57.922Z,97658.53
2019-01-24T17:10:28.609Z,97659.42
2019-01-24T17:12:57.456Z,97666.26
2019-01-24T17:15:27.208Z,97674.77
2019-01-24T17:17:56.048Z,97674.00
2019-01-24T17:20:29.576Z,97671.21
2019-01-24T17:22:58.536Z,97676.35
2019-01-24T17:25:32.549Z,97668.98
2019-01-24T17:28:01.539Z,97685.00
2019-01-24T17:30:32.582Z,97671.30
2019-01-24T17:33:01.962Z,97678.19
2019-01-24T17:35:30.976Z,97677.11
2019-01-24T17:37:59.869Z,97679.77
2019-01-24T17:40:33.707Z,97680.76
2019-01-24T17:43:02.769Z,97672.92
2019-01-24T17:45:32.916Z,97677.86
2019-01-24T17:48:01.990Z,97685.16
2019-01-24T17:50:30.874Z,97686.29
2019-01-24T17:52:59.764Z,97686.56
2019-01-24T17:55:31.048Z,97693.03
2019-01-24T17:57:59.899Z,97696.44
2019-01-24T18:00:30.327Z,97697.55
2019-01-24T18:02:59.323Z,97699.95
2019-01-24T18:05:28.231Z,97693.86
2019-01-24T18:07:57.213Z,97687.97
2019-01-24T18:10:33.125Z,97696.89
2019-01-24T18:13:03.794Z,97695.67
2019-01-24T18:15:34.452Z,97701.25
2019-01-24T18:18:06.183Z,97700.45
2019-01-24T18:20:37.188Z,97699.70
2019-01-24T18:23:08.386Z,97704.61
2019-01-24T18:25:37.565Z,97700.95
2019-01-24T18:28:08.398Z,97711.00
2019-01-24T18:30:37.297Z,97714.26
2019-01-24T18:33:06.878Z,97720.91
2019-01-24T18:35:35.893Z,97730.11
2019-01-24T18:38:05.489Z,97732.55
2019-01-24T18:40:34.770Z,97733.03
2019-01-24T18:43:04.110Z,97736.36
2019-01-24T18:45:35.859Z,97741.33
2019-01-24T18:48:05.468Z,97745.63
2019-01-24T18:50:34.459Z,97753.04
2019-01-24T18:53:03.552Z,97756.08
2019-01-24T18:55:32.450Z,97762.66
2019-01-24T18:58:01.744Z,97762.23
2019-01-24T19:00:32.170Z,97769.50
2019-01-24T19:03:01.062Z,97778.44
2019-01-24T19:05:30.056Z,97781.81
2019-01-24T19:07:59.149Z,97789.78
2019-01-24T19:10:28.142Z,97780.91
2019-01-24T19:12:57.136Z,97779.27
2019-01-24T19:15:26.213Z,97770.63
2019-01-24T19:17:55.121Z,97772.77
2019-01-24T19:20:24.063Z,97780.23
2019-01-24T19:22:52.903Z,97782.92
2019-01-24T19:25:22.413Z,97784.66
2019-01-24T19:27:51.299Z,97766.34
2019-01-24T19:30:25.822Z,97774.27
2019-01-24T19:32:54.918Z,97768.54
2019-01-24T19:35:23.807Z,97762.72
2019-01-24T19:37:52.697Z,97779.20
2019-01-24T19:40:24.048Z,97769.02
2019-01-24T19:42:53.142Z,97774.16
2019-01-24T19:45:23.923Z,97756.36
2019-01-24T19:47:52.867Z,97755.76
2019-01-24T19:50:24.335Z,97759.54
2019-01-24T19:52:53.209Z,97764.86
2019-01-24T19:55:22.100Z,97767.14
2019-01-24T19:57:51.098Z,97775.09
2019-01-24T20:00:30.942Z,97779.53
2019-01-24T20:02:59.831Z,97777.31
2019-01-24T20:05:29.047Z,97780.30
2019-01-24T20:07:58.125Z,97791.09
2019-01-24T20:10:30.956Z,97790.60
2019-01-24T20:12:59.901Z,97796.38
2019-01-24T20:15:30.631Z,97804.58
2019-01-24T20:17:59.833Z,97798.78
2019-01-24T20:20:29.315Z,97807.52
2019-01-24T20:22:58.226Z,97810.61
2019-01-24T20:25:28.871Z,97820.45
2019-01-24T20:27:57.955Z,97827.70
2019-01-24T20:30:29.695Z,97831.72
2019-01-24T20:32:59.548Z,97833.37
2019-01-24T20:35:33.942Z,97844.80
2019-01-24T20:38:02.833Z,97847.72
2019-01-24T20:40:31.855Z,97844.94
2019-01-24T20:43:00.717Z,97843.29
2019-01-24T20:45:29.709Z,97851.31
2019-01-24T20:47:58.834Z,97853.19
2019-01-24T20:50:27.694Z,97856.94
2019-01-24T20:52:56.694Z,97860.23
2019-01-24T20:55:25.579Z,97849.66
2019-01-24T20:57:54.470Z,97858.57
2019-01-24T21:00:24.761Z,97844.81
2019-01-24T21:02:55.529Z,97853.27
2019-01-24T21:05:25.137Z,97862.73
2019-01-24T21:07:54.335Z,97861.48
2019-01-24T21:10:28.143Z,97862.86
2019-01-24T21:12:57.034Z,97862.26
2019-01-24T21:15:25.921Z,97853.75
2019-01-24T21:17:55.016Z,97857.34
2019-01-24T21:20:29.436Z,97862.86
2019-01-24T21:22:58.328Z,97861.63
2019-01-24T21:25:27.625Z,97870.09
2019-01-24T21:27:56.720Z,97871.81
2019-01-24T21:30:27.973Z,97871.06
2019-01-24T21:32:56.961Z,97870.34
2019-01-24T21:35:25.851Z,97867.09
2019-01-24T21:37:54.742Z,97871.52
2019-01-24T21:40:25.065Z,97882.32
2019-01-24T21:42:53.957Z,97877.70
2019-01-24T21:45:27.551Z,97892.14
2019-01-24T21:47:56.448Z,97891.53
2019-01-24T21:50:27.541Z,97889.23
2019-01-24T21:52:56.380Z,97894.30
2019-01-24T21:55:25.577Z,97887.16
2019-01-24T21:57:54.774Z,97889.66
2019-01-24T22:00:28.172Z,97895.41
2019-01-24T22:02:57.164Z,97889.31
2019-01-24T22:05:26.576Z,97887.72
2019-01-24T22:07:55.457Z,97888.76
2019-01-24T22:10:31.822Z,97891.05
2019-01-24T22:13:00.805Z,97898.46
2019-01-24T22:15:31.294Z,97904.70
2019-01-24T22:18:00.542Z,97907.27
2019-01-24T22:20:29.538Z,97916.68
2019-01-24T22:22:58.425Z,97911.62
2019-01-24T22:25:32.760Z,97911.06
2019-01-24T22:28:01.736Z,97908.28
2019-01-24T22:30:38.308Z,97907.95
2019-01-24T22:33:07.726Z,97897.70
2019-01-24T22:35:36.601Z,97891.97
2019-01-24T22:38:07.027Z,97903.39
2019-01-24T22:40:36.122Z,97908.42
2019-01-24T22:43:05.805Z,97914.73
2019-01-24T22:45:34.723Z,97916.18
2019-01-24T22:48:03.513Z,97923.31
2019-01-24T22:50:32.402Z,97922.56
2019-01-24T22:53:01.292Z,97920.41
2019-01-24T22:55:30.183Z,97921.39
2019-01-24T22:57:59.074Z,97915.01
2019-01-24T23:00:47.831Z,97919.23
2019-01-24T23:03:19.589Z,97918.33
2019-01-24T23:05:48.870Z,97923.47
2019-01-24T23:08:17.780Z,97919.84
2019-01-24T23:10:46.670Z,97914.75
2019-01-24T23:13:15.563Z,97912.12
2019-01-24T23:15:44.458Z,97908.22
2019-01-24T23:18:13.341Z,97909.28
2019-01-24T23:20:42.232Z,97902.00
2019-01-24T23:23:11.227Z,97907.83
2019-01-24T23:25:40.115Z,97896.82
2019-01-24T23:28:09.313Z,97896.45
2019-01-24T23:30:38.305Z,97900.97
2019-01-24T23:33:07.196Z,97905.73
2019-01-24T23:35:36.086Z,97903.40
2019-01-24T23:38:05.286Z,97906.71
2019-01-24T23:40:34.175Z,97915.37
2019-01-24T23:43:03.064Z,97914.32
2019-01-24T23:45:31.956Z,97916.00
2019-01-24T23:48:00.849Z,97912.12
2019-01-24T23:50:29.869Z,97911.09
2019-01-24T23:52:58.730Z,97910.72
2019-01-24T23:55:27.621Z,97904.54
2019-01-24T23:57:56.520Z,97902.83
